Time;durP1;ratioP1;P1;durP2;ratioP2;P2;SDS_P1;SDS_P2;PMS_P1;PMS_P2;Temp;Humidity;BMP_temperature;BMP_pressure;BME280_temperature;BME280_humidity;BME280_pressure;Samples;Min_cycle;Max_cycle;Signal;HPM_P1;HPM_P2
2023/07/09 00:00:56;;;;;;;20.77;18.93;;;19.30;85.50;;;;;;5072800;28;20951;-81
2023/07/09 00:03:23;;;;;;;24.17;22.27;;;19.20;90.10;;;;;;5055007;28;20479;-80
2023/07/09 00:05:50;;;;;;;29.40;27.47;;;19.10;91.40;;;;;;5072633;28;20494;-80
2023/07/09 00:08:27;;;;;;;32.40;30.30;;;19.00;92.30;;;;;;5072947;28;20451;-80
2023/07/09 00:10:57;;;;;;;29.47;27.67;;;19.00;93.10;;;;;;5054856;28;20461;-80
2023/07/09 00:13:25;;;;;;;35.07;32.87;;;19.00;92.70;;;;;;5072470;28;21006;-80
2023/07/09 00:15:53;;;;;;;38.40;35.67;;;19.00;92.90;;;;;;5072509;28;20450;-81
2023/07/09 00:18:20;;;;;;;36.50;34.30;;;19.10;93.10;;;;;;5072341;28;20475;-81
2023/07/09 00:20:48;;;;;;;35.50;33.30;;;19.10;92.70;;;;;;5057601;28;20451;-80
2023/07/09 00:23:16;;;;;;;28.83;26.97;;;19.00;92.90;;;;;;5052755;28;20558;-80
2023/07/09 00:25:44;;;;;;;27.07;25.17;;;19.00;92.30;;;;;;5052428;28;20895;-80
2023/07/09 00:28:15;;;;;;;35.47;33.40;;;18.90;92.70;;;;;;5052417;28;20452;-80
2023/07/09 00:30:42;;;;;;;37.00;34.90;;;18.90;94.60;;;;;;5051161;28;20475;-81
2023/07/09 00:33:14;;;;;;;40.97;38.67;;;18.80;94.60;;;;;;5052214;28;20464;-81
2023/07/09 00:35:41;;;;;;;44.90;42.60;;;18.80;94.60;;;;;;5051991;28;20455;-80
2023/07/09 00:38:14;;;;;;;52.13;49.23;;;18.80;94.90;;;;;;5059422;28;20487;-80
2023/07/09 00:40:49;;;;;;;54.67;51.83;;;18.80;95.50;;;;;;5053306;28;20504;-80
2023/07/09 00:43:18;;;;;;;51.53;48.83;;;18.80;95.00;;;;;;5071811;28;20474;-80
2023/07/09 00:45:45;;;;;;;57.70;55.10;;;18.90;94.70;;;;;;5072139;28;20455;-80
2023/07/09 00:48:16;;;;;;;51.03;48.40;;;19.00;95.40;;;;;;5052382;28;20447;-81
2023/07/09 00:50:49;;;;;;;53.10;50.40;;;18.90;95.60;;;;;;5034380;28;20808;-80
2023/07/09 00:53:22;;;;;;;43.43;41.03;;;19.10;94.70;;;;;;5052002;28;20470;-81
2023/07/09 00:55:56;;;;;;;36.80;34.70;;;19.10;94.70;;;;;;5070374;28;20454;-80
2023/07/09 00:58:27;;;;;;;39.27;36.50;;;19.00;94.70;;;;;;5071999;28;20475;-80
2023/07/09 01:01:00;;;;;;;42.50;39.80;;;19.10;94.70;;;;;;5071953;28;20450;-80
2023/07/09 01:03:35;;;;;;;42.47;40.13;;;19.10;94.70;;;;;;5071624;28;20975;-80
2023/07/09 01:06:03;;;;;;;42.63;40.13;;;19.10;94.70;;;;;;5087259;28;20458;-80
2023/07/09 01:08:32;;;;;;;48.37;45.40;;;19.10;94.70;;;;;;5071605;28;20886;-81
2023/07/09 01:11:00;;;;;;;54.47;51.87;;;19.00;95.80;;;;;;5087098;28;20887;-80
2023/07/09 01:13:32;;;;;;;66.10;62.60;;;19.00;96.30;;;;;;5071476;28;20481;-80
2023/07/09 01:16:01;;;;;;;60.70;57.80;;;18.90;97.70;;;;;;5066975;28;20887;-80
2023/07/09 01:18:28;;;;;;;68.97;65.53;;;18.90;98.40;;;;;;5051229;28;21006;-80
2023/07/09 01:21:04;;;;;;;61.10;58.00;;;18.80;97.40;;;;;;5051253;28;20467;-80
2023/07/09 01:23:31;;;;;;;60.50;57.30;;;18.80;99.30;;;;;;5051644;28;20548;-80
2023/07/09 01:25:58;;;;;;;61.23;58.13;;;18.80;99.80;;;;;;5051332;28;20455;-80
2023/07/09 01:28:25;;;;;;;59.43;56.37;;;18.90;98.00;;;;;;5051519;28;20823;-80
2023/07/09 01:30:53;;;;;;;60.23;57.33;;;18.80;98.00;;;;;;5033815;28;20458;-80
2023/07/09 01:33:21;;;;;;;62.10;59.20;;;18.80;96.80;;;;;;5054261;23;21000;-62
2023/07/09 01:35:48;;;;;;;67.07;63.97;;;18.80;98.80;;;;;;5073557;28;20461;-62
2023/07/09 01:41:37;;;;;;;57.23;54.33;;;18.80;99.40;;;;;;5067373;28;20511;-62
2023/07/09 01:44:04;;;;;;;59.57;56.37;;;18.80;98.00;;;;;;5090691;28;20446;-62
2023/07/09 01:46:31;;;;;;;57.43;54.70;;;18.70;97.90;;;;;;5090720;28;20454;-62
2023/07/09 01:48:58;;;;;;;54.93;51.47;;;18.70;98.10;;;;;;5090898;28;20420;-62
2023/07/09 01:51:27;;;;;;;67.80;64.10;;;18.60;98.30;;;;;;5090702;28;20450;-62
2023/07/09 01:53:54;;;;;;;80.07;76.00;;;18.60;99.80;;;;;;5090794;28;20477;-62
2023/07/09 01:56:21;;;;;;;103.90;98.80;;;18.50;99.90;;;;;;5090550;28;20805;-62
2023/07/09 01:58:50;;;;;;;112.17;107.60;;;18.50;99.90;;;;;;5090750;28;20560;-62
2023/07/09 02:01:19;;;;;;;116.90;112.30;;;18.40;99.90;;;;;;5070714;28;20450;-62
2023/07/09 02:03:46;;;;;;;123.93;118.93;;;18.40;99.90;;;;;;5070612;28;20459;-62
2023/07/09 02:06:13;;;;;;;151.50;145.50;;;18.40;99.90;;;;;;5090072;28;20484;-62
2023/07/09 02:08:40;;;;;;;161.50;155.30;;;18.30;99.90;;;;;;5090519;28;20473;-62
2023/07/09 02:11:07;;;;;;;163.80;157.27;;;18.30;99.90;;;;;;5090683;28;20822;-62
2023/07/09 02:13:33;;;;;;;177.00;169.93;;;18.30;99.90;;;;;;5090651;28;20454;-62
2023/07/09 02:16:02;;;;;;;158.13;151.63;;;18.20;99.90;;;;;;5090603;28;20456;-62
2023/07/09 02:18:30;;;;;;;152.83;146.73;;;18.30;99.90;;;;;;5090776;28;20484;-62
2023/07/09 02:20:56;;;;;;;176.03;169.03;;;18.30;99.90;;;;;;5090699;28;20454;-62
2023/07/09 02:23:28;;;;;;;193.13;185.63;;;18.20;99.90;;;;;;5090481;28;20468;-62
2023/07/09 02:25:55;;;;;;;191.97;184.37;;;18.20;99.90;;;;;;5090185;28;20449;-62
2023/07/09 02:28:22;;;;;;;201.03;193.43;;;18.10;99.90;;;;;;5090833;28;20442;-62
2023/07/09 02:30:48;;;;;;;191.20;183.53;;;18.10;99.90;;;;;;5090674;28;20533;-62
2023/07/09 02:33:17;;;;;;;185.43;178.03;;;18.00;99.90;;;;;;5090718;28;20460;-62
2023/07/09 02:35:44;;;;;;;162.77;156.27;;;18.00;99.90;;;;;;5090306;28;20457;-62
2023/07/09 02:38:10;;;;;;;178.80;171.57;;;17.90;99.90;;;;;;5090443;28;20553;-62
2023/07/09 02:40:37;;;;;;;196.63;188.43;;;17.90;99.90;;;;;;5090140;28;20464;-62
2023/07/09 02:43:04;;;;;;;202.80;194.70;;;17.90;99.90;;;;;;5090469;28;21018;-62
2023/07/09 02:45:31;;;;;;;215.07;206.00;;;17.90;99.90;;;;;;5090787;28;20454;-62
2023/07/09 02:47:58;;;;;;;229.97;219.73;;;17.80;99.90;;;;;;5090681;28;20507;-62
2023/07/09 02:50:26;;;;;;;235.47;225.43;;;17.90;99.90;;;;;;5090697;28;20471;-62
2023/07/09 02:52:53;;;;;;;249.33;238.33;;;17.90;99.90;;;;;;5090485;28;20449;-62
2023/07/09 02:55:19;;;;;;;239.67;228.67;;;17.90;99.90;;;;;;5090660;28;20452;-62
2023/07/09 02:57:46;;;;;;;242.90;231.97;;;17.90;99.90;;;;;;5090923;28;20827;-62
2023/07/09 03:00:14;;;;;;;245.77;235.13;;;18.00;99.90;;;;;;5090936;28;20468;-62
2023/07/09 03:02:41;;;;;;;257.73;246.87;;;17.90;99.90;;;;;;5091635;28;20450;-62
2023/07/09 03:05:10;;;;;;;280.90;268.90;;;17.90;99.90;;;;;;5093524;28;20445;-62
2023/07/09 03:07:38;;;;;;;269.23;257.63;;;17.80;99.90;;;;;;5093908;28;20453;-62
2023/07/09 03:10:06;;;;;;;282.40;270.40;;;17.90;99.90;;;;;;5093766;28;20478;-62
2023/07/09 03:12:33;;;;;;;253.37;242.77;;;17.90;99.90;;;;;;5093811;28;20454;-63
2023/07/09 03:15:00;;;;;;;219.47;210.17;;;17.90;99.90;;;;;;5093755;28;20929;-64
2023/07/09 03:17:27;;;;;;;216.63;207.93;;;18.00;99.90;;;;;;5093494;28;20462;-63
2023/07/09 03:19:54;;;;;;;202.73;194.93;;;18.00;99.90;;;;;;5097300;28;20448;-63
2023/07/09 03:22:20;;;;;;;208.87;200.57;;;18.00;99.90;;;;;;5083730;28;20446;-63
2023/07/09 03:24:49;;;;;;;248.40;238.40;;;18.00;99.90;;;;;;5074842;28;20470;-63
2023/07/09 03:27:15;;;;;;;238.40;228.40;;;17.90;99.90;;;;;;5093455;28;20461;-64
2023/07/09 03:29:42;;;;;;;223.70;214.60;;;18.00;99.90;;;;;;5093574;28;20488;-64
2023/07/09 03:32:09;;;;;;;214.00;205.20;;;18.00;99.90;;;;;;5093418;28;20827;-63
2023/07/09 03:34:36;;;;;;;222.60;213.50;;;18.00;99.90;;;;;;5093296;28;20453;-63
2023/07/09 03:37:03;;;;;;;223.77;214.47;;;18.10;99.90;;;;;;5093322;28;20540;-64
2023/07/09 03:39:30;;;;;;;233.77;222.90;;;18.10;99.90;;;;;;5093226;28;20449;-64
2023/07/09 03:41:58;;;;;;;232.47;222.33;;;18.10;99.90;;;;;;5093167;28;20958;-64
2023/07/09 03:44:25;;;;;;;217.33;208.53;;;18.10;99.90;;;;;;5093169;28;20458;-63
2023/07/09 03:46:52;;;;;;;205.13;196.83;;;18.10;99.90;;;;;;5092633;28;20461;-63
2023/07/09 03:49:19;;;;;;;229.73;219.93;;;18.10;99.90;;;;;;5092931;28;20501;-63
2023/07/09 03:51:46;;;;;;;231.43;221.57;;;18.10;99.90;;;;;;5093064;28;20460;-63
2023/07/09 03:54:13;;;;;;;229.50;219.73;;;18.10;99.90;;;;;;5093003;28;20454;-64
2023/07/09 03:56:39;;;;;;;225.93;215.73;;;18.00;99.90;;;;;;5092541;28;20458;-64
2023/07/09 03:59:08;;;;;;;207.50;198.73;;;18.10;99.90;;;;;;5092882;28;20450;-63
2023/07/09 04:01:34;;;;;;;209.23;200.07;;;18.10;99.90;;;;;;5093061;28;20937;-63
2023/07/09 04:04:01;;;;;;;207.80;199.30;;;18.20;99.90;;;;;;5092703;28;20449;-64
2023/07/09 04:06:28;;;;;;;204.87;196.47;;;18.20;99.90;;;;;;5092613;28;20456;-63
2023/07/09 04:08:55;;;;;;;197.87;189.30;;;18.20;99.90;;;;;;5092684;28;20473;-63
2023/07/09 04:11:22;;;;;;;189.23;181.20;;;18.30;99.90;;;;;;5092562;28;20458;-63
2023/07/09 04:13:49;;;;;;;180.10;172.10;;;18.30;99.90;;;;;;5092387;28;20446;-63
2023/07/09 04:16:17;;;;;;;196.80;188.17;;;18.20;99.90;;;;;;5092054;28;20819;-64
2023/07/09 04:18:44;;;;;;;202.87;194.10;;;18.20;99.90;;;;;;5092529;28;20532;-63
2023/07/09 04:21:10;;;;;;;206.80;198.03;;;18.30;99.90;;;;;;5092476;28;20476;-63
2023/07/09 04:23:37;;;;;;;197.10;188.40;;;18.30;99.90;;;;;;5092340;28;20458;-64
2023/07/09 04:26:04;;;;;;;194.30;186.00;;;18.40;99.90;;;;;;5092017;28;20963;-63
2023/07/09 04:28:31;;;;;;;207.07;198.23;;;18.50;99.90;;;;;;5092167;28;20496;-64
2023/07/09 04:30:58;;;;;;;192.50;184.60;;;18.50;99.90;;;;;;5091613;28;20454;-64
2023/07/09 04:33:26;;;;;;;193.10;184.97;;;18.70;99.90;;;;;;5091869;28;20449;-62
2023/07/09 04:35:53;;;;;;;181.27;172.93;;;18.70;99.90;;;;;;5091931;28;20462;-63
2023/07/09 04:38:20;;;;;;;174.07;166.67;;;18.80;99.90;;;;;;5091463;28;20500;-63
2023/07/09 04:40:48;;;;;;;162.83;155.53;;;18.90;99.90;;;;;;5091840;28;20465;-63
2023/07/09 04:43:15;;;;;;;171.17;163.63;;;19.00;99.90;;;;;;5090945;28;20453;-63
2023/07/09 04:45:41;;;;;;;190.23;181.90;;;19.10;99.90;;;;;;5091376;28;20446;-64
2023/07/09 04:48:08;;;;;;;175.97;168.30;;;19.20;99.90;;;;;;5091932;28;20848;-64
2023/07/09 04:50:36;;;;;;;173.33;166.20;;;19.20;99.90;;;;;;5092090;28;20484;-64
2023/07/09 04:53:03;;;;;;;162.07;154.67;;;19.30;99.90;;;;;;5091283;28;20446;-63
2023/07/09 04:55:30;;;;;;;134.03;128.30;;;19.50;99.90;;;;;;5089903;28;20449;-63
2023/07/09 04:57:57;;;;;;;124.70;119.70;;;19.60;99.90;;;;;;5091330;28;20507;-63
2023/07/09 05:00:24;;;;;;;88.10;84.40;;;19.80;99.90;;;;;;5089988;28;20859;-63
2023/07/09 05:02:51;;;;;;;69.13;65.00;;;19.90;99.90;;;;;;5081925;28;20819;-63
2023/07/09 05:05:18;;;;;;;56.33;52.80;;;20.00;99.90;;;;;;5082470;28;20453;-64
2023/07/09 05:07:47;;;;;;;40.90;38.50;;;20.20;98.50;;;;;;5090929;28;20456;-63
2023/07/09 05:10:13;;;;;;;29.50;27.30;;;20.30;97.40;;;;;;5089084;28;20476;-64
2023/07/09 05:12:50;;;;;;;20.83;19.03;;;20.40;95.30;;;;;;5090414;28;20446;-64
2023/07/09 05:15:18;;;;;;;16.73;14.23;;;20.60;94.30;;;;;;5087641;28;20815;-63
2023/07/09 05:17:45;;;;;;;16.60;12.30;;;20.80;92.50;;;;;;5090973;28;20446;-64
2023/07/09 05:20:12;;;;;;;13.67;11.57;;;20.90;92.00;;;;;;5090000;28;20806;-64
2023/07/09 05:22:39;;;;;;;15.50;10.10;;;21.00;91.20;;;;;;5090772;28;20453;-64
2023/07/09 05:25:08;;;;;;;11.70;8.70;;;21.10;90.00;;;;;;5090254;28;20449;-63
2023/07/09 05:27:35;;;;;;;14.47;7.83;;;21.40;87.30;;;;;;5091308;28;20450;-64
2023/07/09 05:30:02;;;;;;;12.10;7.80;;;21.80;85.70;;;;;;5090371;28;20476;-64
2023/07/09 05:32:28;;;;;;;10.47;7.30;;;22.20;80.30;;;;;;5090615;28;20454;-64
2023/07/09 05:34:55;;;;;;;12.40;6.83;;;22.60;78.60;;;;;;5090410;28;20449;-64
2023/07/09 05:37:22;;;;;;;14.43;7.20;;;22.90;72.80;;;;;;5085519;28;20454;-64
2023/07/09 05:39:49;;;;;;;12.67;6.87;;;23.20;73.00;;;;;;5089310;28;20454;-64
2023/07/09 05:42:17;;;;;;;14.70;6.70;;;23.50;69.70;;;;;;5090345;28;20499;-64
2023/07/09 05:44:44;;;;;;;11.77;6.43;;;23.90;65.40;;;;;;5091204;28;20833;-64
2023/07/09 05:47:11;;;;;;;14.10;6.70;;;24.10;64.20;;;;;;5090758;28;20477;-64
2023/07/09 05:49:39;;;;;;;12.23;7.80;;;24.30;62.60;;;;;;5090662;28;20496;-64
2023/07/09 05:52:06;;;;;;;11.93;5.80;;;24.50;60.40;;;;;;5089641;28;20457;-64
2023/07/09 05:54:33;;;;;;;12.37;7.23;;;24.70;59.00;;;;;;5090773;28;20424;-64
2023/07/09 05:57:00;;;;;;;16.17;7.13;;;24.90;57.80;;;;;;5090672;28;20449;-64
2023/07/09 05:59:28;;;;;;;11.20;6.60;;;25.20;58.00;;;;;;5090970;28;20457;-64
2023/07/09 06:01:55;;;;;;;9.33;6.30;;;25.30;55.40;;;;;;5090515;28;20464;-64
2023/07/09 06:04:22;;;;;;;12.27;6.40;;;25.50;53.20;;;;;;5090368;28;20465;-64
2023/07/09 06:06:48;;;;;;;10.43;5.77;;;25.50;51.30;;;;;;5090459;28;20464;-64
2023/07/09 06:09:16;;;;;;;11.73;5.63;;;25.70;49.50;;;;;;5089968;28;20466;-63
2023/07/09 06:11:43;;;;;;;10.00;6.20;;;25.90;49.60;;;;;;5090704;28;20454;-64
2023/07/09 06:14:10;;;;;;;9.47;5.43;;;26.10;49.60;;;;;;5090827;28;20533;-64
2023/07/09 06:16:38;;;;;;;13.93;5.93;;;26.30;47.10;;;;;;5090517;28;20450;-64
2023/07/09 06:19:05;;;;;;;11.27;5.60;;;26.60;44.40;;;;;;5090253;28;20536;-63
2023/07/09 06:21:32;;;;;;;11.50;6.13;;;26.80;41.30;;;;;;5090793;28;20820;-64
2023/07/09 06:23:59;;;;;;;12.83;6.07;;;26.80;41.20;;;;;;5090822;28;20425;-63
2023/07/09 06:26:26;;;;;;;9.73;5.83;;;27.10;42.40;;;;;;5090487;28;20458;-64
2023/07/09 06:28:52;;;;;;;13.77;5.60;;;27.20;41.50;;;;;;5090126;28;20953;-64
2023/07/09 06:31:20;;;;;;;12.27;6.37;;;27.40;38.10;;;;;;5090205;28;20456;-64
2023/07/09 06:33:49;;;;;;;10.47;6.50;;;27.50;38.40;;;;;;5090420;28;20458;-64
2023/07/09 06:36:17;;;;;;;9.03;4.80;;;27.60;39.20;;;;;;5090366;28;20456;-64
2023/07/09 06:38:44;;;;;;;10.80;6.07;;;27.80;37.80;;;;;;5093111;28;20460;-64
2023/07/09 06:41:12;;;;;;;9.03;5.57;;;27.90;32.70;;;;;;5091004;28;20859;-63
2023/07/09 06:43:38;;;;;;;10.23;5.53;;;27.80;32.60;;;;;;5093609;28;20451;-64
2023/07/09 06:46:07;;;;;;;9.40;5.80;;;28.00;32.80;;;;;;5093531;28;20455;-64
2023/07/09 06:48:33;;;;;;;10.40;5.63;;;28.00;32.80;;;;;;5093297;28;20450;-64
2023/07/09 06:51:03;;;;;;;10.73;5.93;;;28.10;29.80;;;;;;5093051;28;20474;-64
2023/07/09 06:53:30;;;;;;;12.47;5.80;;;28.40;28.40;;;;;;5093007;28;20931;-64
2023/07/09 06:55:58;;;;;;;10.40;5.27;;;28.50;27.40;;;;;;5092378;28;20452;-64
2023/07/09 06:58:27;;;;;;;11.13;6.13;;;28.70;26.70;;;;;;5093391;28;20845;-64
2023/07/09 07:00:55;;;;;;;8.40;5.17;;;28.60;25.30;;;;;;5093543;28;20920;-64
2023/07/09 07:03:23;;;;;;;10.63;5.50;;;28.80;25.00;;;;;;5093849;28;20457;-64
2023/07/09 07:05:50;;;;;;;11.13;5.17;;;29.10;25.50;;;;;;5093181;28;20453;-63
2023/07/09 07:08:22;;;;;;;10.13;5.50;;;29.20;24.20;;;;;;5093091;28;20452;-64
2023/07/09 07:10:50;;;;;;;10.23;5.97;;;29.40;21.10;;;;;;5093732;28;20840;-64
2023/07/09 07:13:17;;;;;;;13.40;5.77;;;29.40;21.20;;;;;;5093578;28;20549;-65
2023/07/09 07:15:49;;;;;;;11.48;5.90;;;29.50;20.00;;;;;;5092381;28;20448;-65
2023/07/09 07:18:16;;;;;;;12.97;5.40;;;29.80;20.20;;;;;;5093522;28;20599;-65
2023/07/09 07:20:44;;;;;;;9.50;5.70;;;29.90;18.50;;;;;;5093538;28;20456;-64
2023/07/09 07:23:11;;;;;;;8.53;4.30;;;30.10;16.00;;;;;;5093391;28;20428;-64
2023/07/09 07:25:39;;;;;;;9.73;4.80;;;30.20;17.60;;;;;;5093082;28;20503;-64
2023/07/09 07:28:06;;;;;;;11.30;5.40;;;30.40;16.00;;;;;;5093733;28;20429;-63
2023/07/09 07:30:33;;;;;;;15.93;5.60;;;30.50;15.60;;;;;;5093409;28;20477;-63
2023/07/09 07:33:09;;;;;;;9.10;5.17;;;30.70;14.20;;;;;;5104202;22;21047;-67
2023/07/09 07:35:36;;;;;;;9.93;5.10;;;30.90;12.30;;;;;;5054376;28;20452;-66
2023/07/09 07:38:03;;;;;;;8.47;4.80;;;31.00;11.40;;;;;;5053929;28;20446;-67
2023/07/09 07:40:33;;;;;;;9.90;5.30;;;31.20;11.50;;;;;;5044932;22;20463;-67
2023/07/09 07:43:01;;;;;;;8.40;4.50;;;31.40;11.60;;;;;;5035346;28;20452;-68
2023/07/09 07:45:28;;;;;;;11.43;5.00;;;31.40;11.10;;;;;;5035552;28;20878;-67
2023/07/09 07:47:55;;;;;;;10.47;4.50;;;31.60;11.70;;;;;;5035281;28;20438;-67
2023/07/09 07:50:22;;;;;;;8.60;4.70;;;32.00;9.30;;;;;;5035052;28;20484;-67
2023/07/09 07:52:49;;;;;;;9.83;5.67;;;31.70;5.30;;;;;;5034884;28;20452;-67
2023/07/09 07:55:16;;;;;;;8.73;4.43;;;31.90;7.70;;;;;;5035369;28;20452;-67
2023/07/09 07:57:43;;;;;;;9.03;4.50;;;32.20;4.30;;;;;;5034990;28;20452;-66
2023/07/09 08:00:12;;;;;;;11.40;4.10;;;32.40;4.30;;;;;;5035194;28;20451;-66
2023/07/09 08:02:39;;;;;;;9.57;5.10;;;32.60;4.40;;;;;;5034822;28;20457;-66
2023/07/09 08:05:07;;;;;;;8.20;4.83;;;32.90;1.20;;;;;;5034998;28;20427;-66
2023/07/09 08:07:34;;;;;;;9.93;4.80;;;33.00;2.10;;;;;;5034782;28;20463;-66
2023/07/09 08:10:01;;;;;;;9.20;4.67;;;32.90;1.40;;;;;;5034759;28;20445;-66
2023/07/09 08:12:28;;;;;;;8.17;4.60;;;33.30;1.80;;;;;;5034697;28;20466;-66
2023/07/09 08:14:54;;;;;;;10.50;5.37;;;33.50;1.00;;;;;;5034872;28;20539;-66
2023/07/09 08:17:23;;;;;;;9.70;4.23;;;33.60;1.00;;;;;;5034774;28;20438;-66
2023/07/09 08:19:52;;;;;;;9.27;4.70;;;33.70;1.00;;;;;;5034827;28;20476;-66
2023/07/09 08:22:20;;;;;;;11.13;5.23;;;33.90;1.00;;;;;;5034833;28;20553;-66
2023/07/09 08:24:47;;;;;;;9.87;5.30;;;34.30;1.00;;;;;;5034373;28;20460;-66
2023/07/09 08:27:15;;;;;;;10.30;5.10;;;34.60;1.00;;;;;;5034404;28;20481;-67
2023/07/09 08:29:42;;;;;;;8.27;4.60;;;34.30;1.00;;;;;;5034662;28;20453;-66
2023/07/09 08:32:10;;;;;;;9.60;5.00;;;34.30;1.00;;;;;;5034230;28;20431;-66
2023/07/09 08:34:40;;;;;;;14.13;5.77;;;34.50;1.00;;;;;;5034549;28;20817;-66
2023/07/09 08:37:08;;;;;;;9.37;4.70;;;34.60;1.00;;;;;;5034526;28;20426;-66
2023/07/09 08:39:36;;;;;;;10.30;5.00;;;34.70;1.00;;;;;;5033482;28;20921;-66
2023/07/09 08:42:07;;;;;;;9.70;5.47;;;35.10;1.00;;;;;;5034148;28;20212;-67
2023/07/09 08:45:06;;;;;;;9.13;5.03;;;35.30;1.00;;;;;;5034353;28;20845;-67
2023/07/09 08:47:42;;;;;;;8.77;4.47;;;35.70;1.00;;;;;;5034058;28;20908;-67
2023/07/09 08:50:14;;;;;;;10.63;4.00;;;35.90;1.00;;;;;;5034375;28;20797;-67
2023/07/09 08:52:43;;;;;;;8.63;4.57;;;35.90;1.00;;;;;;5033987;28;20422;-66
2023/07/09 08:55:14;;;;;;;12.70;5.20;;;36.00;1.00;;;;;;5033861;28;20449;-66
2023/07/09 08:57:45;;;;;;;10.80;4.37;;;36.20;1.00;;;;;;5034187;28;20412;-66
2023/07/09 09:00:17;;;;;;;11.20;4.60;;;36.20;1.00;;;;;;5033067;28;20472;-67
2023/07/09 09:02:50;;;;;;;8.43;5.07;;;36.70;1.00;;;;;;5033579;28;20426;-67
2023/07/09 09:05:22;;;;;;;9.03;5.00;;;36.70;1.00;;;;;;5033784;28;20436;-66
2023/07/09 09:07:55;;;;;;;8.50;4.20;;;36.90;1.00;;;;;;5034018;28;20418;-66
2023/07/09 09:10:30;;;;;;;10.90;4.70;;;36.70;1.00;;;;;;5033874;28;20435;-67
2023/07/09 09:13:06;;;;;;;9.43;4.30;;;36.30;1.00;;;;;;5033817;28;20972;-66
2023/07/09 09:15:34;;;;;;;13.47;4.90;;;36.70;1.00;;;;;;5033581;28;20447;-66
2023/07/09 09:18:18;;;;;;;9.73;4.80;;;36.90;1.00;;;;;;5033807;28;20457;-67
2023/07/09 09:20:49;;;;;;;10.57;4.97;;;36.90;1.00;;;;;;5033731;28;20452;-67
2023/07/09 09:23:16;;;;;;;11.40;4.90;;;36.90;1.00;;;;;;5033454;28;20438;-66
2023/07/09 09:25:49;;;;;;;8.53;4.93;;;37.00;1.00;;;;;;5033726;28;20427;-68
2023/07/09 09:28:16;;;;;;;9.93;5.70;;;37.20;1.00;;;;;;5033641;28;20423;-67
2023/07/09 09:30:43;;;;;;;11.13;4.20;;;37.30;1.00;;;;;;5033271;28;20917;-67
2023/07/09 09:33:12;;;;;;;11.10;4.60;;;37.40;1.00;;;;;;5033221;28;20460;-67
2023/07/09 09:35:43;;;;;;;8.30;5.00;;;37.60;1.00;;;;;;5033539;28;20456;-67
2023/07/09 09:38:13;;;;;;;8.50;4.90;;;37.60;1.00;;;;;;5033296;28;20487;-66
2023/07/09 09:40:40;;;;;;;9.33;5.77;;;37.90;1.00;;;;;;5033328;28;20476;-67
2023/07/09 09:43:14;;;;;;;9.00;4.50;;;37.80;1.00;;;;;;5033121;28;20823;-66
2023/07/09 09:45:44;;;;;;;9.30;5.23;;;37.90;1.00;;;;;;5033521;28;20766;-67
2023/07/09 09:48:20;;;;;;;8.13;4.00;;;38.10;1.00;;;;;;5033097;28;20452;-67
2023/07/09 09:50:48;;;;;;;10.63;5.50;;;38.30;1.00;;;;;;5033103;28;20467;-67
2023/07/09 09:53:22;;;;;;;12.87;4.73;;;38.10;1.00;;;;;;5032971;28;20437;-67
2023/07/09 09:55:49;;;;;;;10.77;5.03;;;38.60;1.00;;;;;;5033276;28;20448;-67
2023/07/09 09:58:18;;;;;;;18.43;4.70;;;39.00;1.00;;;;;;5033321;28;20910;-67
2023/07/09 10:00:50;;;;;;;8.07;4.37;;;39.50;1.00;;;;;;5032875;28;20530;-66
2023/07/09 10:03:17;;;;;;;8.27;5.70;;;39.20;1.00;;;;;;5032868;28;20478;-66
2023/07/09 10:05:47;;;;;;;8.80;5.27;;;39.20;1.00;;;;;;5033131;28;20526;-67
2023/07/09 10:08:27;;;;;;;12.77;5.00;;;39.60;1.00;;;;;;5033272;28;20525;-67
2023/07/09 10:10:59;;;;;;;10.97;5.07;;;39.60;1.00;;;;;;5032960;28;20436;-67
2023/07/09 10:13:31;;;;;;;10.40;4.97;;;39.50;1.00;;;;;;5036877;28;20452;-66
2023/07/09 10:16:06;;;;;;;12.97;5.37;;;40.00;1.00;;;;;;5036961;28;20419;-67
2023/07/09 10:18:46;;;;;;;8.20;4.67;;;39.70;1.00;;;;;;5036904;28;20461;-67
2023/07/09 10:21:18;;;;;;;8.90;4.77;;;40.00;1.00;;;;;;5036715;28;20534;-67
2023/07/09 10:23:59;;;;;;;12.93;5.00;;;40.10;1.00;;;;;;5036785;28;20426;-68
2023/07/09 10:26:31;;;;;;;10.20;5.37;;;40.30;1.00;;;;;;5037046;28;20436;-67
2023/07/09 10:29:21;;;;;;;14.57;5.00;;;40.00;1.00;;;;;;5036721;28;20443;-67
2023/07/09 10:31:55;;;;;;;7.10;4.10;;;39.70;1.00;;;;;;5036891;28;20411;-67
2023/07/09 10:34:28;;;;;;;8.90;5.10;;;40.30;1.00;;;;;;5036564;28;20452;-65
2023/07/09 10:37:23;;;;;;;10.80;5.83;;;40.70;1.00;;;;;;5037096;28;20761;-65
2023/07/09 10:39:56;;;;;;;8.43;5.00;;;40.40;1.00;;;;;;5036559;28;20437;-65
2023/07/09 10:42:28;;;;;;;10.90;4.97;;;40.00;1.00;;;;;;5036610;28;20464;-64
2023/07/09 10:44:58;;;;;;;8.47;4.07;;;40.50;1.00;;;;;;5036414;28;20444;-64
2023/07/09 10:47:32;;;;;;;8.33;5.30;;;40.60;1.00;;;;;;5036694;28;20426;-65
2023/07/09 10:50:03;;;;;;;8.53;5.07;;;41.20;1.00;;;;;;5036658;28;20800;-65
2023/07/09 10:52:33;;;;;;;7.73;5.10;;;40.90;1.00;;;;;;5036439;28;20444;-65
2023/07/09 10:55:13;;;;;;;8.67;5.30;;;40.50;1.00;;;;;;5036221;28;20429;-65
2023/07/09 10:57:47;;;;;;;11.90;5.87;;;41.10;1.00;;;;;;5036485;28;20522;-66
2023/07/09 11:00:18;;;;;;;11.90;6.00;;;42.00;1.00;;;;;;5036390;28;20440;-66
2023/07/09 11:02:47;;;;;;;10.47;6.13;;;42.20;1.00;;;;;;5036368;28;20440;-67
2023/07/09 11:05:16;;;;;;;17.17;8.47;;;42.80;1.00;;;;;;5149269;22;20462;-85
2023/07/09 11:07:47;;;;;;;20.40;9.73;;;42.10;1.00;;;;;;5038942;28;20489;-85
2023/07/09 11:10:24;;;;;;;8.77;5.40;;;42.70;1.00;;;;;;5073154;28;20529;-84
2023/07/09 11:12:58;;;;;;;9.47;4.67;;;42.20;1.00;;;;;;5074423;28;20427;-85
2023/07/09 11:15:31;;;;;;;9.40;4.70;;;42.40;1.00;;;;;;5054192;28;20425;-84
2023/07/09 11:17:59;;;;;;;8.60;5.50;;;42.20;1.00;;;;;;5055076;28;20451;-83
2023/07/09 11:20:32;;;;;;;10.17;4.53;;;42.60;1.00;;;;;;5036436;28;20562;-86
2023/07/09 11:23:04;;;;;;;9.13;5.10;;;42.60;1.00;;;;;;5053405;28;20429;-84
2023/07/09 11:25:43;;;;;;;11.33;5.20;;;42.40;1.00;;;;;;5053866;28;20429;-83
2023/07/09 11:28:11;;;;;;;9.37;4.37;;;42.90;1.00;;;;;;5035741;28;20920;-87
2023/07/09 11:30:48;;;;;;;8.47;4.93;;;42.50;1.00;;;;;;5053505;28;20426;-86
2023/07/09 11:33:20;;;;;;;10.20;4.80;;;42.50;1.00;;;;;;5052960;28;20540;-86
2023/07/09 11:35:50;;;;;;;8.00;4.13;;;43.20;1.00;;;;;;5054774;28;20516;-85
2023/07/09 11:38:20;;;;;;;6.60;3.63;;;43.00;1.00;;;;;;5035063;28;20463;-86
2023/07/09 11:40:52;;;;;;;9.00;3.77;;;42.80;1.00;;;;;;5045126;28;20429;-86
2023/07/09 11:43:32;;;;;;;8.90;5.07;;;42.70;1.00;;;;;;5052905;28;20471;-85
2023/07/09 11:46:07;;;;;;;9.20;4.93;;;42.70;1.00;;;;;;5053486;28;20513;-86
2023/07/09 11:48:36;;;;;;;11.43;5.00;;;43.00;1.00;;;;;;5052788;28;21053;-85
2023/07/09 11:51:09;;;;;;;7.80;4.40;;;41.90;1.00;;;;;;5053369;28;20987;-86
2023/07/09 11:53:42;;;;;;;9.60;4.30;;;42.20;1.00;;;;;;5053088;28;20448;-85
2023/07/09 11:56:19;;;;;;;9.67;4.40;;;42.40;1.00;;;;;;5052740;28;20451;-86
2023/07/09 11:58:55;;;;;;;8.43;4.70;;;42.50;1.00;;;;;;5052261;28;20432;-87
2023/07/09 12:01:26;;;;;;;10.10;3.70;;;41.60;1.00;;;;;;5053037;28;20462;-87
2023/07/09 12:03:57;;;;;;;11.20;4.53;;;41.60;1.00;;;;;;5035787;28;20494;-87
2023/07/09 12:06:27;;;;;;;10.37;5.60;;;41.70;1.00;;;;;;5050999;28;20804;-88
2023/07/09 12:08:55;;;;;;;8.27;4.63;;;41.30;1.00;;;;;;5052792;28;20828;-87
2023/07/09 12:11:28;;;;;;;10.60;4.07;;;41.70;1.00;;;;;;5052224;28;20960;-86
2023/07/09 12:14:05;;;;;;;9.70;4.17;;;41.80;1.00;;;;;;5052223;28;20546;-86
2023/07/09 12:16:36;;;;;;;6.37;3.37;;;41.80;1.00;;;;;;5051775;28;20449;-86
2023/07/09 12:19:04;;;;;;;8.50;3.63;;;42.50;1.00;;;;;;5052290;28;20422;-86
2023/07/09 12:21:35;;;;;;;10.83;3.93;;;41.80;1.00;;;;;;5052029;28;20501;-86
2023/07/09 12:24:03;;;;;;;12.20;3.63;;;41.90;1.00;;;;;;5052009;28;20471;-85
2023/07/09 12:26:32;;;;;;;9.07;3.87;;;41.70;1.00;;;;;;5033536;28;20467;-81
2023/07/09 12:29:00;;;;;;;8.00;4.00;;;41.90;1.00;;;;;;5050831;28;20422;-83
2023/07/09 12:31:30;;;;;;;9.17;3.70;;;41.70;1.00;;;;;;5034515;28;20471;-86
2023/07/09 12:34:00;;;;;;;7.43;4.20;;;42.30;1.00;;;;;;5052018;28;20541;-86
2023/07/09 12:36:28;;;;;;;8.13;4.00;;;42.20;1.00;;;;;;5052002;28;20453;-87
2023/07/09 12:39:01;;;;;;;7.10;4.10;;;42.30;1.00;;;;;;5052881;28;20463;-88
2023/07/09 12:41:35;;;;;;;7.80;3.73;;;41.20;1.00;;;;;;5051693;28;20445;-86
2023/07/09 12:44:06;;;;;;;8.43;3.77;;;40.50;1.00;;;;;;5051895;28;20478;-87
2023/07/09 12:46:33;;;;;;;6.80;4.10;;;39.80;1.00;;;;;;5051949;28;20562;-86
2023/07/09 12:49:00;;;;;;;8.90;4.07;;;38.90;1.00;;;;;;5052178;28;20443;-86